Time;durP1;ratioP1;P1;durP2;ratioP2;P2;SDS_P1;SDS_P2;PMS_P1;PMS_P2;Temp;Humidity;BMP_temperature;BMP_pressure;BME280_temperature;BME280_humidity;BME280_pressure;Samples;Min_cycle;Max_cycle;Signal;HPM_P1;HPM_P2
2023/04/29 00:02:27;;;;;;;25.80;15.80;;;;;;;11.12;64.24;100096.96;217801;1288;139012;-83
2023/04/29 00:07:28;;;;;;;27.90;14.70;;;;;;;11.08;64.34;100096.33;218334;1289;139509;-84
2023/04/29 00:12:30;;;;;;;28.10;16.10;;;;;;;11.06;64.59;100097.73;217686;1288;139846;-84
2023/04/29 00:17:31;;;;;;;20.10;12.70;;;;;;;11.04;64.99;100095.52;218322;1288;138964;-84
2023/04/29 00:22:31;;;;;;;45.20;23.80;;;;;;;11.02;65.00;100093.30;217870;1288;139721;-84
2023/04/29 00:27:32;;;;;;;34.00;19.40;;;;;;;10.97;65.30;100094.23;218326;1290;138503;-83
2023/04/29 00:32:32;;;;;;;33.90;17.70;;;;;;;10.94;65.46;100087.61;217880;1288;139532;-84
2023/04/29 00:37:33;;;;;;;28.80;16.40;;;;;;;10.93;66.10;100083.13;218272;1289;138410;-84
2023/04/29 00:42:34;;;;;;;33.00;15.30;;;;;;;10.91;66.34;100074.30;217872;1289;139105;-83
2023/04/29 00:47:34;;;;;;;27.80;15.60;;;;;;;10.91;66.53;100075.41;218332;1289;139304;-84
2023/04/29 00:52:37;;;;;;;24.40;15.20;;;;;;;10.91;66.60;100076.59;217861;1289;139147;-84
2023/04/29 00:57:38;;;;;;;31.70;16.20;;;;;;;10.91;66.91;100083.35;218424;1288;139250;-85
2023/04/29 01:02:39;;;;;;;32.20;17.10;;;;;;;10.91;67.27;100088.55;217947;1289;138288;-85
2023/04/29 01:08:27;;;;;;;27.90;16.20;;;;;;;10.88;67.51;100080.50;218386;1289;139070;-84
2023/04/29 01:13:43;;;;;;;26.90;16.30;;;;;;;10.84;68.00;100084.74;217619;1288;139356;-84
2023/04/29 01:18:56;;;;;;;27.30;17.80;;;;;;;10.84;67.98;100081.44;218303;1289;139373;-85
2023/04/29 01:23:57;;;;;;;26.60;16.90;;;;;;;10.82;68.49;100077.41;218002;1288;139103;-84
2023/04/29 01:29:32;;;;;;;28.30;16.50;;;;;;;10.79;68.71;100076.14;217843;1289;139021;-84
2023/04/29 01:34:53;;;;;;;29.60;17.20;;;;;;;10.78;69.04;100079.12;218286;1289;138670;-84
2023/04/29 01:40:15;;;;;;;26.90;16.50;;;;;;;10.75;69.42;100078.96;217763;1288;139109;-85
2023/04/29 01:45:17;;;;;;;27.40;15.80;;;;;;;10.72;69.52;100081.52;218342;1289;138487;-84
2023/04/29 01:50:18;;;;;;;29.20;16.60;;;;;;;10.73;69.89;100079.09;217887;1289;139052;-84
2023/04/29 01:55:18;;;;;;;27.00;16.20;;;;;;;10.72;70.01;100084.27;218336;1288;138925;-84
2023/04/29 02:00:19;;;;;;;26.00;15.30;;;;;;;10.71;70.26;100085.93;217785;1289;139174;-84
2023/04/29 02:05:19;;;;;;;27.90;16.60;;;;;;;10.69;70.40;100086.55;218372;1290;139574;-84
2023/04/29 02:10:20;;;;;;;28.10;16.40;;;;;;;10.66;70.75;100084.50;217842;1288;139394;-84
2023/04/29 02:15:20;;;;;;;26.40;16.90;;;;;;;10.62;71.23;100081.87;218295;1289;138910;-84
2023/04/29 02:20:21;;;;;;;30.90;16.60;;;;;;;10.61;70.94;100080.14;217914;1289;139096;-84
2023/04/29 02:25:21;;;;;;;27.70;16.30;;;;;;;10.60;71.25;100081.63;218370;1288;138347;-83
2023/04/29 02:30:21;;;;;;;27.00;16.30;;;;;;;10.58;71.60;100079.90;217835;1288;139403;-84
2023/04/29 02:35:22;;;;;;;25.90;16.40;;;;;;;10.57;71.91;100080.83;218184;1290;139275;-84
2023/04/29 02:40:24;;;;;;;28.30;17.20;;;;;;;10.56;72.22;100077.75;217715;1291;140109;-84
2023/04/29 02:45:25;;;;;;;27.80;15.90;;;;;;;10.55;72.58;100075.86;218328;1288;139332;-83
2023/04/29 02:50:26;;;;;;;25.20;15.40;;;;;;;10.53;73.86;100068.70;217858;1288;139183;-84
2023/04/29 02:55:26;;;;;;;29.80;16.40;;;;;;;10.51;75.84;100066.95;218318;1289;139183;-86
2023/04/29 03:00:27;;;;;;;25.10;17.70;;;;;;;10.49;77.48;100067.48;217799;1289;139920;-85
2023/04/29 03:05:27;;;;;;;26.60;15.50;;;;;;;10.45;78.29;100064.65;218326;1290;139937;-84
2023/04/29 03:10:27;;;;;;;24.90;14.90;;;;;;;10.44;78.72;100066.06;217827;1289;139898;-85
2023/04/29 03:15:28;;;;;;;25.00;16.00;;;;;;;10.41;79.12;100062.19;218333;1288;139458;-85
2023/04/29 03:20:28;;;;;;;27.10;16.90;;;;;;;10.39;80.07;100066.73;217941;1288;140319;-85
2023/04/29 03:25:29;;;;;;;23.90;15.60;;;;;;;10.31;80.49;100061.27;218343;1287;140144;-85
2023/04/29 03:30:29;;;;;;;27.60;16.40;;;;;;;10.30;80.51;100056.45;217845;1288;140119;-85
2023/04/29 03:35:30;;;;;;;27.20;15.70;;;;;;;10.30;80.50;100055.67;218366;1288;139320;-86
2023/04/29 03:40:30;;;;;;;26.10;16.40;;;;;;;10.29;81.27;100054.81;217721;1289;139484;-85
2023/04/29 03:45:31;;;;;;;28.10;15.90;;;;;;;10.28;81.40;100054.56;218413;1290;139167;-85
2023/04/29 03:50:31;;;;;;;32.60;17.00;;;;;;;10.26;81.77;100056.13;217946;1289;139546;-85
2023/04/29 03:55:32;;;;;;;29.10;17.80;;;;;;;10.19;82.28;100059.70;218405;1288;139206;-85
2023/04/29 04:00:32;;;;;;;34.40;19.50;;;;;;;10.16;82.74;100056.53;217863;1288;139526;-86
2023/04/29 04:05:33;;;;;;;29.70;18.70;;;;;;;10.16;83.08;100055.89;218368;1288;140141;-86
2023/04/29 04:10:33;;;;;;;29.50;18.40;;;;;;;10.13;83.77;100059.81;217793;1289;141890;-85
2023/04/29 04:15:34;;;;;;;33.20;19.70;;;;;;;10.12;84.21;100059.80;218235;1289;220435;-84
2023/04/29 04:20:38;;;;;;;28.80;18.00;;;;;;;10.11;84.37;100059.96;217909;1290;139561;-85
2023/04/29 04:25:45;;;;;;;32.20;19.70;;;;;;;10.13;85.06;100064.59;218348;1288;138861;-84
2023/04/29 04:30:46;;;;;;;31.50;18.40;;;;;;;10.14;85.38;100064.92;217795;1288;139612;-85
2023/04/29 04:35:47;;;;;;;32.20;19.10;;;;;;;10.14;85.97;100061.23;218436;1288;139277;-86
2023/04/29 04:40:47;;;;;;;37.10;20.70;;;;;;;10.15;86.48;100061.86;217879;1288;139494;-85
2023/04/29 04:45:48;;;;;;;33.00;18.80;;;;;;;10.12;86.91;100062.77;218298;1288;139236;-85
2023/04/29 04:50:49;;;;;;;27.70;17.30;;;;;;;10.10;87.63;100052.64;217995;1288;139129;-86
2023/04/29 04:55:49;;;;;;;31.20;17.70;;;;;;;10.09;88.08;100048.39;218339;1291;138637;-86
2023/04/29 05:00:50;;;;;;;31.80;18.70;;;;;;;10.12;88.57;100048.95;217852;1290;139532;-86
2023/04/29 05:05:54;;;;;;;29.50;17.40;;;;;;;10.12;88.75;100044.55;218362;1288;139067;-85
2023/04/29 05:10:56;;;;;;;24.50;16.10;;;;;;;10.16;89.37;100043.55;217884;1288;139971;-85
2023/04/29 05:15:57;;;;;;;26.60;16.60;;;;;;;10.21;89.80;100042.97;218247;1289;139371;-85
2023/04/29 05:20:58;;;;;;;26.10;17.60;;;;;;;10.27;89.71;100037.89;217718;1288;140032;-85
2023/04/29 05:25:59;;;;;;;27.20;17.70;;;;;;;10.32;90.12;100036.27;218447;1288;97180;-84
2023/04/29 05:30:59;;;;;;;30.30;17.80;;;;;;;10.37;90.61;100027.11;217845;1288;140661;-85
2023/04/29 05:36:00;;;;;;;26.40;17.40;;;;;;;10.47;90.38;100025.03;218309;1289;139700;-85
2023/04/29 05:41:01;;;;;;;30.00;17.30;;;;;;;10.56;89.80;100030.52;217814;1288;140317;-85
2023/04/29 05:46:02;;;;;;;26.70;16.80;;;;;;;10.66;89.35;100035.42;218311;1289;139588;-86
2023/04/29 05:51:02;;;;;;;29.60;18.00;;;;;;;10.75;89.38;100037.11;217622;1289;139710;-85
2023/04/29 05:56:07;;;;;;;32.50;18.20;;;;;;;10.87;88.67;100042.11;218488;1289;96495;-84
2023/04/29 06:01:07;;;;;;;25.60;16.60;;;;;;;10.99;88.06;100041.68;217766;1288;139222;-85
2023/04/29 06:06:08;;;;;;;26.70;17.60;;;;;;;11.13;87.69;100050.45;218351;1290;139265;-86
2023/04/29 06:11:09;;;;;;;29.50;17.40;;;;;;;11.30;87.08;100049.08;217725;1288;140104;-86
2023/04/29 06:16:10;;;;;;;27.70;16.70;;;;;;;11.49;86.65;100051.02;218279;1287;139219;-85
2023/04/29 06:21:11;;;;;;;25.00;15.30;;;;;;;11.68;85.96;100055.55;217732;1288;140201;-86
2023/04/29 06:26:12;;;;;;;28.50;15.30;;;;;;;11.81;84.38;100061.62;218348;1288;96309;-81
2023/04/29 06:31:13;;;;;;;23.50;15.10;;;;;;;11.86;83.34;100058.46;217692;1288;138997;-83
2023/04/29 06:36:13;;;;;;;26.30;14.60;;;;;;;11.92;83.14;100059.64;218239;1288;139281;-82
2023/04/29 06:41:13;;;;;;;26.00;14.80;;;;;;;11.97;82.97;100062.16;217604;1288;139715;-82
2023/04/29 06:46:14;;;;;;;23.70;14.70;;;;;;;11.99;82.47;100062.16;218213;1289;139744;-82
2023/04/29 06:51:15;;;;;;;25.70;14.30;;;;;;;12.01;82.83;100063.50;217822;1288;139587;-81
2023/04/29 06:56:15;;;;;;;23.00;13.80;;;;;;;12.03;81.97;100062.80;218462;1288;96614;-82
2023/04/29 07:01:16;;;;;;;22.40;13.80;;;;;;;12.05;82.02;100056.65;217661;1288;139980;-82
2023/04/29 07:06:16;;;;;;;26.80;13.60;;;;;;;12.10;82.56;100053.17;218302;1289;139248;-82
2023/04/29 07:11:18;;;;;;;20.60;13.60;;;;;;;12.17;82.84;100058.27;217662;1291;140776;-82
2023/04/29 07:16:25;;;;;;;20.70;14.20;;;;;;;12.29;83.56;100054.40;218235;1288;139636;-82
2023/04/29 07:21:26;;;;;;;23.30;14.60;;;;;;;12.43;83.72;100047.84;217729;1288;139567;-82
2023/04/29 07:26:27;;;;;;;23.00;14.70;;;;;;;12.63;83.37;100047.46;218440;1291;96710;-82
2023/04/29 07:31:28;;;;;;;22.80;14.10;;;;;;;12.88;83.74;100046.49;217798;1289;140324;-82
2023/04/29 07:36:28;;;;;;;21.70;12.80;;;;;;;13.09;82.29;100043.98;218308;1288;139022;-82
2023/04/29 07:41:29;;;;;;;22.60;14.80;;;;;;;13.21;81.20;100038.92;217673;1289;140535;-81
2023/04/29 07:46:30;;;;;;;19.00;11.50;;;;;;;13.34;80.47;100039.00;218336;1289;139168;-82
2023/04/29 07:51:30;;;;;;;23.80;12.50;;;;;;;13.52;80.56;100036.35;217633;1289;139919;-82
2023/04/29 07:56:31;;;;;;;20.90;13.00;;;;;;;13.65;79.36;100033.27;218379;1291;96885;-83
2023/04/29 08:01:31;;;;;;;23.50;14.00;;;;;;;13.78;78.91;100033.23;217807;1291;139813;-82
2023/04/29 08:06:33;;;;;;;18.10;12.30;;;;;;;13.96;78.18;100034.65;218357;1289;140092;-83
2023/04/29 08:11:33;;;;;;;22.80;12.90;;;;;;;14.20;77.78;100035.48;217723;1289;139610;-82
2023/04/29 08:16:34;;;;;;;20.70;12.20;;;;;;;14.51;77.43;100038.80;218336;1287;139924;-83
2023/04/29 08:21:34;;;;;;;18.30;11.90;;;;;;;14.70;76.45;100043.17;217739;1288;141096;-83
2023/04/29 08:26:35;;;;;;;20.30;11.90;;;;;;;14.83;75.84;100048.71;218395;1288;104153;-82
2023/04/29 08:31:35;;;;;;;18.50;12.40;;;;;;;14.89;75.13;100053.56;217827;1288;140019;-82
2023/04/29 08:36:37;;;;;;;16.80;11.40;;;;;;;14.94;74.67;100058.46;218342;1288;140060;-81
2023/04/29 08:41:38;;;;;;;16.40;11.30;;;;;;;15.16;73.72;100061.12;217757;1290;139942;-82
2023/04/29 08:46:38;;;;;;;22.00;13.30;;;;;;;15.40;73.10;100058.75;218377;1288;139655;-81
2023/04/29 08:51:39;;;;;;;25.40;13.40;;;;;;;15.58;72.29;100060.63;217680;1288;140690;-82
2023/04/29 08:56:44;;;;;;;22.70;12.50;;;;;;;15.73;72.80;100063.81;218385;1290;103921;-82
2023/04/29 09:01:50;;;;;;;23.10;13.70;;;;;;;15.82;73.62;100066.42;217653;1289;139874;-81
2023/04/29 09:06:52;;;;;;;21.60;13.20;;;;;;;15.98;73.28;100067.52;218149;1291;139509;-81
2023/04/29 09:11:54;;;;;;;22.50;13.50;;;;;;;16.10;72.71;100067.23;217806;1290;140087;-80
2023/04/29 09:16:54;;;;;;;20.70;13.60;;;;;;;16.21;71.43;100064.34;218343;1291;139813;-81
2023/04/29 09:21:55;;;;;;;22.20;13.40;;;;;;;16.56;72.76;100059.76;217859;1288;139949;-81
2023/04/29 09:26:57;;;;;;;20.60;13.20;;;;;;;17.17;70.69;100060.73;218168;1288;140243;-82
2023/04/29 09:31:58;;;;;;;18.90;11.60;;;;;;;17.52;67.71;100062.20;218035;1288;139902;-81
2023/04/29 09:36:58;;;;;;;16.20;11.30;;;;;;;18.01;66.71;100054.34;218429;1290;138303;-80
2023/04/29 09:42:01;;;;;;;17.50;12.10;;;;;;;18.53;65.16;100062.56;217861;1289;139135;-82
2023/04/29 09:47:06;;;;;;;18.00;11.70;;;;;;;19.05;64.25;100058.30;218223;1288;138834;-82
2023/04/29 09:52:09;;;;;;;18.80;12.20;;;;;;;19.56;61.59;100065.05;217640;1289;139349;-82
2023/04/29 09:57:11;;;;;;;18.30;11.90;;;;;;;19.75;61.88;100063.41;218367;1289;139138;-81
2023/04/29 10:02:19;;;;;;;17.30;11.50;;;;;;;20.11;60.47;100064.48;217924;1288;138664;-81
2023/04/29 10:07:20;;;;;;;16.10;11.40;;;;;;;20.66;59.81;100065.45;218196;1291;138355;-81
2023/04/29 10:12:21;;;;;;;16.00;11.00;;;;;;;21.06;57.31;100065.90;217701;1291;139085;-82
2023/04/29 10:17:40;;;;;;;16.20;12.10;;;;;;;21.13;55.37;100064.36;218423;1289;139376;-83
2023/04/29 10:22:46;;;;;;;16.60;10.40;;;;;;;21.09;56.32;100069.80;217808;1291;138627;-82
2023/04/29 10:27:49;;;;;;;19.70;10.80;;;;;;;21.29;55.84;100067.50;218310;1293;139874;-81
2023/04/29 10:32:50;;;;;;;14.40;9.10;;;;;;;21.43;55.62;100057.31;217937;1292;138482;-82
2023/04/29 10:37:52;;;;;;;15.70;8.60;;;;;;;21.70;54.15;100056.08;218372;1289;138176;-82
2023/04/29 10:42:53;;;;;;;11.30;7.60;;;;;;;21.47;53.63;100057.36;217661;1288;139058;-82
2023/04/29 10:53:04;;;;;;;12.30;8.70;;;;;;;20.63;54.33;100054.45;217761;1289;138836;-82
2023/04/29 10:58:05;;;;;;;16.80;9.70;;;;;;;20.34;55.94;100054.28;218192;1291;138396;-81
2023/04/29 11:03:06;;;;;;;13.80;9.60;;;;;;;20.31;56.31;100055.50;217749;1289;139077;-80
2023/04/29 11:08:22;;;;;;;16.90;9.50;;;;;;;20.21;57.02;100051.52;218434;1291;96149;-81
2023/04/29 11:13:36;;;;;;;13.00;9.30;;;;;;;20.17;57.02;100057.67;217744;1289;138576;-81
2023/04/29 11:19:04;;;;;;;15.00;9.50;;;;;;;19.71;57.45;100063.14;218202;1294;138397;-80
2023/04/29 11:24:05;;;;;;;17.20;11.30;;;;;;;19.31;58.60;100061.05;217950;1292;138859;-83
2023/04/29 11:29:09;;;;;;;15.40;11.00;;;;;;;19.03;60.25;100062.41;217639;1289;139283;-84
2023/04/29 11:34:10;;;;;;;16.00;11.70;;;;;;;18.89;61.18;100062.26;218349;1289;138795;-82
2023/04/29 11:39:10;;;;;;;19.20;11.90;;;;;;;18.75;62.33;100063.06;217715;1289;139055;-82
2023/04/29 11:44:11;;;;;;;20.90;11.70;;;;;;;18.76;62.69;100064.23;218458;1289;96700;-84
2023/04/29 11:49:11;;;;;;;18.20;12.70;;;;;;;18.71;63.43;100067.64;217741;1290;138858;-87
2023/04/29 11:54:12;;;;;;;19.90;13.10;;;;;;;18.72;63.62;100066.89;218184;1292;138957;-87
2023/04/29 11:59:13;;;;;;;16.40;12.10;;;;;;;18.68;63.96;100061.45;217769;1294;140420;-88
2023/04/29 12:04:13;;;;;;;19.90;12.90;;;;;;;19.09;64.33;100066.63;218100;1292;139141;-88
2023/04/29 12:09:15;;;;;;;17.00;11.30;;;;;;;19.36;63.47;100063.52;217604;1289;139480;-87
2023/04/29 12:14:16;;;;;;;16.20;12.20;;;;;;;19.73;63.31;100063.23;218301;1289;107181;-89
2023/04/29 12:19:17;;;;;;;16.90;10.50;;;;;;;20.09;62.85;100057.13;217543;1291;141445;-88
2023/04/29 12:24:20;;;;;;;14.60;10.30;;;;;;;20.45;62.50;100049.83;218243;1289;138772;-87
2023/04/29 12:29:24;;;;;;;14.20;9.80;;;;;;;20.53;61.37;100054.88;217727;1289;159139;-89
2023/04/29 12:34:29;;;;;;;15.30;11.00;;;;;;;20.60;61.77;100052.31;218037;1289;138957;-88
2023/04/29 12:39:30;;;;;;;16.00;11.40;;;;;;;20.65;61.44;100053.50;217622;1290;138726;-89
2023/04/29 12:44:36;;;;;;;15.30;11.30;;;;;;;20.61;61.69;100049.89;218373;1289;96761;-90
2023/04/29 12:49:40;;;;;;;14.50;11.00;;;;;;;20.46;61.92;100044.60;217534;1289;139693;-87
2023/04/29 12:54:42;;;;;;;12.80;8.90;;;;;;;20.46;61.99;100046.41;218328;1288;138478;-85
2023/04/29 12:59:42;;;;;;;12.90;9.30;;;;;;;20.43;62.72;100051.02;217723;1289;138806;-82
2023/04/29 13:04:43;;;;;;;14.20;10.90;;;;;;;20.36;62.85;100046.68;218378;1289;138479;-83
2023/04/29 13:09:43;;;;;;;16.40;11.70;;;;;;;20.11;63.83;100046.35;217833;1288;139392;-83
2023/04/29 13:14:44;;;;;;;15.40;11.50;;;;;;;20.06;65.28;100041.66;218500;1290;96001;-86
2023/04/29 13:19:44;;;;;;;18.50;12.40;;;;;;;20.00;65.21;100037.38;217882;1289;138924;-85
2023/04/29 13:24:45;;;;;;;17.80;12.40;;;;;;;19.92;65.05;100038.58;218339;1288;138531;-84
2023/04/29 13:29:45;;;;;;;15.20;11.50;;;;;;;19.81;65.55;100037.54;217809;1289;139620;-86
2023/04/29 13:34:46;;;;;;;15.70;11.60;;;;;;;19.83;66.05;100033.95;218320;1289;139494;-84
2023/04/29 13:39:46;;;;;;;14.50;9.10;;;;;;;19.92;66.19;100033.40;217801;1289;139029;-87
2023/04/29 13:44:48;;;;;;;13.20;8.10;;;;;;;19.91;65.11;100036.33;218392;1288;95857;-87
2023/04/29 13:49:49;;;;;;;13.20;8.50;;;;;;;19.68;65.02;100037.54;217740;1289;139106;-87
2023/04/29 13:54:49;;;;;;;13.20;9.20;;;;;;;19.62;65.15;100036.23;218341;1288;138189;-87
2023/04/29 13:59:51;;;;;;;15.30;9.00;;;;;;;19.39;65.25;100040.63;217806;1288;139473;-86
2023/04/29 14:04:52;;;;;;;13.20;8.90;;;;;;;19.19;65.92;100050.32;218301;1288;138970;-88
2023/04/29 14:09:52;;;;;;;9.60;5.70;;;;;;;18.98;67.15;100057.09;217807;1289;138710;-89
2023/04/29 14:14:53;;;;;;;7.80;3.40;;;;;;;18.52;69.93;100070.63;218425;1289;95943;-89
2023/04/29 14:19:53;;;;;;;8.80;3.80;;;;;;;18.01;73.11;100075.20;217706;1289;139460;-82
2023/04/29 14:24:54;;;;;;;8.70;5.40;;;;;;;17.75;74.97;100082.76;218303;1288;138754;-84
2023/04/29 14:29:55;;;;;;;11.20;5.40;;;;;;;17.52;76.86;100083.91;217426;1290;139913;-82
2023/04/29 14:34:55;;;;;;;13.00;5.90;;;;;;;17.27;78.55;100085.16;218214;1288;139954;-82
2023/04/29 14:39:56;;;;;;;11.70;6.50;;;;;;;17.09;79.76;100083.88;217685;1288;139827;-82
2023/04/29 14:44:56;;;;;;;13.20;7.30;;;;;;;16.86;81.24;100085.37;218289;1288;139844;-82
2023/04/29 14:49:57;;;;;;;10.80;6.90;;;;;;;16.68;82.60;100084.86;217760;1289;139452;-82
2023/04/29 14:54:57;;;;;;;11.70;7.70;;;;;;;16.55;83.66;100090.50;218167;1289;139975;-83
2023/04/29 14:59:57;;;;;;;10.90;7.60;;;;;;;16.47;84.68;100092.33;217672;1289;142788;-83
2023/04/29 15:04:58;;;;;;;12.90;8.50;;;;;;;16.33;85.24;100089.92;218191;1288;139845;-83
2023/04/29 15:09:58;;;;;;;13.20;9.10;;;;;;;16.23;86.19;100093.66;217516;1288;140053;-83
2023/04/29 15:14:59;;;;;;;13.40;8.60;;;;;;;16.05;87.74;100101.75;218189;1288;139660;-82
2023/04/29 15:19:59;;;;;;;11.90;7.40;;;;;;;15.89;89.00;100103.35;217822;1288;139376;-83
2023/04/29 15:25:00;;;;;;;12.40;8.20;;;;;;;15.71;89.95;100100.79;218261;1288;140543;-83
2023/04/29 15:30:00;;;;;;;13.30;8.50;;;;;;;15.64;91.49;100102.85;217650;1288;139663;-82
2023/04/29 15:35:02;;;;;;;10.60;6.20;;;;;;;15.55;92.22;100104.16;217999;1291;139135;-81
2023/04/29 15:40:03;;;;;;;9.40;6.30;;;;;;;15.50;92.19;100111.63;217529;1289;139808;-80
2023/04/29 15:45:07;;;;;;;9.30;5.60;;;;;;;15.50;92.92;100116.45;218170;1291;139364;-81
2023/04/29 15:50:09;;;;;;;9.90;5.40;;;;;;;15.46;93.60;100119.14;217911;1289;140114;-81
2023/04/29 15:55:10;;;;;;;8.90;4.80;;;;;;;15.45;93.87;100130.32;218229;1288;139547;-82
2023/04/29 16:00:11;;;;;;;12.70;7.20;;;;;;;15.44;93.83;100142.28;217714;1289;139832;-82
2023/04/29 16:05:11;;;;;;;13.20;8.00;;;;;;;15.36;93.68;100146.58;218391;1289;139617;-82
2023/04/29 16:10:12;;;;;;;14.20;9.50;;;;;;;15.22;93.31;100147.93;217700;1288;139354;-83
2023/04/29 16:15:12;;;;;;;14.50;9.30;;;;;;;15.14;93.02;100154.60;218092;1290;288210;-83
2023/04/29 16:20:13;;;;;;;14.90;9.80;;;;;;;15.04;93.37;100155.73;217885;1288;139390;-82
2023/04/29 16:25:13;;;;;;;13.30;9.30;;;;;;;14.95;93.16;100165.82;218360;1287;139828;-82
2023/04/29 16:30:14;;;;;;;14.00;9.20;;;;;;;14.84;93.18;100172.35;217810;1289;139482;-82
2023/04/29 16:35:15;;;;;;;14.60;10.60;;;;;;;14.71;93.38;100178.48;218314;1288;139044;-82
2023/04/29 16:40:15;;;;;;;14.00;9.40;;;;;;;14.58;93.56;100186.54;217602;1289;140039;-83
2023/04/29 16:45:16;;;;;;;14.40;9.70;;;;;;;14.45;93.82;100195.11;218344;1288;139919;-81
2023/04/29 16:50:18;;;;;;;16.90;11.30;;;;;;;14.40;93.93;100205.27;217877;1288;139700;-82
2023/04/29 16:55:18;;;;;;;15.50;10.90;;;;;;;14.31;94.25;100216.58;218301;1289;139558;-82
2023/04/29 17:00:19;;;;;;;18.10;11.60;;;;;;;14.19;94.44;100221.02;217814;1289;139691;-82
2023/04/29 17:05:19;;;;;;;17.50;12.00;;;;;;;14.07;94.78;100225.65;218307;1288;140061;-82
2023/04/29 17:10:20;;;;;;;20.30;13.40;;;;;;;13.93;94.70;100233.56;217720;1288;139666;-82
2023/04/29 17:15:20;;;;;;;19.20;13.20;;;;;;;13.82;95.04;100242.80;218307;1289;139278;-83
2023/04/29 17:20:21;;;;;;;24.20;15.10;;;;;;;13.72;95.28;100245.86;217934;1291;140208;-82
2023/04/29 17:25:22;;;;;;;26.60;19.00;;;;;;;13.64;95.51;100249.20;218407;1288;139175;-82
2023/04/29 17:30:23;;;;;;;29.10;23.00;;;;;;;13.57;95.61;100257.36;217816;1289;139968;-82
2023/04/29 17:35:24;;;;;;;29.00;19.00;;;;;;;13.51;95.90;100266.55;218361;1288;140076;-83
2023/04/29 17:40:24;;;;;;;30.20;19.90;;;;;;;13.43;96.07;100274.23;217631;1288;140276;-82
2023/04/29 17:45:25;;;;;;;31.50;21.00;;;;;;;13.37;96.31;100279.15;218213;1288;139389;-82
2023/04/29 17:50:26;;;;;;;32.20;20.50;;;;;;;13.34;96.47;100289.35;217798;1288;139972;-82
2023/04/29 17:55:26;;;;;;;35.70;22.90;;;;;;;13.30;96.79;100295.20;218358;1288;139079;-83
2023/04/29 18:00:27;;;;;;;36.00;21.70;;;;;;;13.20;97.60;100295.30;217683;1288;139587;-82
2023/04/29 18:05:28;;;;;;;39.00;22.60;;;;;;;13.08;97.56;100302.19;218328;1288;139194;-82
2023/04/29 18:10:28;;;;;;;39.00;24.50;;;;;;;13.01;97.93;100308.27;217816;1288;140111;-83
2023/04/29 18:15:29;;;;;;;44.20;24.10;;;;;;;12.91;98.66;100315.34;218347;1288;139328;-82
2023/04/29 18:20:30;;;;;;;40.00;27.20;;;;;;;12.86;98.59;100320.47;217884;1288;139773;-82
2023/04/29 18:25:34;;;;;;;38.30;22.60;;;;;;;12.81;99.13;100326.86;218353;1288;140180;-83
2023/04/29 18:30:34;;;;;;;34.60;22.30;;;;;;;12.78;99.10;100333.58;217756;1288;139858;-83
2023/04/29 18:35:36;;;;;;;29.80;20.50;;;;;;;12.69;99.65;100342.95;218292;1288;140140;-83
2023/04/29 18:40:37;;;;;;;29.10;19.40;;;;;;;12.63;99.73;100351.47;217661;1288;139958;-82
2023/04/29 18:45:37;;;;;;;31.70;20.30;;;;;;;12.57;99.78;100358.87;218352;1288;139392;-83
2023/04/29 18:50:39;;;;;;;27.40;18.20;;;;;;;12.50;99.66;100373.70;217927;1289;139983;-84
2023/04/29 18:55:39;;;;;;;25.80;16.60;;;;;;;12.47;99.84;100379.58;218251;1289;139391;-83
2023/04/29 19:00:40;;;;;;;24.60;17.60;;;;;;;12.41;99.90;100392.99;217799;1288;140070;-82
2023/04/29 19:05:41;;;;;;;28.60;18.40;;;;;;;12.40;99.78;100395.73;218297;1290;139260;-84
2023/04/29 19:10:42;;;;;;;30.30;18.30;;;;;;;12.39;99.84;100400.95;217759;1289;139547;-84
2023/04/29 19:15:43;;;;;;;29.00;17.10;;;;;;;12.34;99.96;100414.88;218187;1289;139252;-85
2023/04/29 19:20:44;;;;;;;26.50;17.50;;;;;;;12.24;100.00;100428.16;217817;1290;139503;-83
2023/04/29 19:25:46;;;;;;;24.40;16.50;;;;;;;12.16;100.00;100433.33;218194;1289;139426;-83
2023/04/29 19:30:48;;;;;;;23.70;17.20;;;;;;;12.13;99.99;100441.34;217533;1289;140269;-85
2023/04/29 19:35:49;;;;;;;21.80;15.40;;;;;;;12.06;99.84;100448.10;218066;1290;139488;-84
2023/04/29 19:40:49;;;;;;;24.70;16.50;;;;;;;11.93;99.09;100456.61;217548;1290;140089;-84
2023/04/29 19:45:50;;;;;;;23.50;16.30;;;;;;;11.85;98.97;100462.38;218124;1290;139228;-85
2023/04/29 19:50:51;;;;;;;30.00;18.20;;;;;;;11.78;98.58;100468.26;217710;1290;140381;-84
2023/04/29 19:55:52;;;;;;;25.00;15.70;;;;;;;11.67;97.72;100476.21;218169;1289;139508;-84
2023/04/29 20:00:53;;;;;;;19.20;11.80;;;;;;;11.56;96.31;100479.41;217458;1289;140024;-84
2023/04/29 20:05:53;;;;;;;18.10;11.10;;;;;;;11.49;95.32;100487.23;218132;1289;139972;-85
2023/04/29 20:10:55;;;;;;;16.00;10.30;;;;;;;11.40;94.80;100495.73;217603;1288;140529;-85
2023/04/29 20:15:55;;;;;;;21.70;12.50;;;;;;;11.36;94.86;100501.45;218294;1288;139181;-84
2023/04/29 20:20:56;;;;;;;18.30;13.00;;;;;;;11.33;94.61;100505.98;217828;1289;139965;-85
2023/04/29 20:25:57;;;;;;;21.80;13.60;;;;;;;11.29;94.60;100510.66;218420;1289;139398;-84
2023/04/29 20:30:57;;;;;;;20.50;11.50;;;;;;;11.22;94.34;100517.84;217844;1289;140179;-85
2023/04/29 20:36:04;;;;;;;18.40;10.80;;;;;;;11.17;94.27;100522.74;218339;1290;139740;-84
2023/04/29 20:41:05;;;;;;;;;;;;;;;11.11;94.14;100527.48;217812;1289;140010;-85
2023/04/29 20:46:05;;;;;;;18.20;11.40;;;;;;;11.06;93.75;100533.41;218407;1289;125360;-85
2023/04/29 20:51:06;;;;;;;19.40;10.30;;;;;;;11.02;93.40;100538.95;217876;1288;140267;-85
2023/04/29 20:56:07;;;;;;;17.60;10.70;;;;;;;10.99;93.04;100542.21;218458;1288;96014;-86
2023/04/29 21:01:09;;;;;;;19.50;10.70;;;;;;;10.93;92.82;100545.14;217835;1288;139945;-85
2023/04/29 21:06:10;;;;;;;16.00;10.20;;;;;;;10.89;92.70;100552.42;218269;1289;139745;-85
2023/04/29 21:11:11;;;;;;;16.80;9.70;;;;;;;10.85;92.43;100553.39;217826;1289;140421;-85
2023/04/29 21:16:11;;;;;;;18.50;9.70;;;;;;;10.82;92.13;100560.52;218153;1288;139232;-87
2023/04/29 21:21:12;;;;;;;15.50;9.20;;;;;;;10.78;91.48;100564.80;217634;1288;139670;-86
2023/04/29 21:26:13;;;;;;;14.50;9.00;;;;;;;10.71;91.06;100573.35;218480;1288;95875;-91
2023/04/29 21:31:15;;;;;;;15.20;9.20;;;;;;;10.65;90.73;100575.48;217789;1289;139039;-90
2023/04/29 21:36:15;;;;;;;16.20;8.70;;;;;;;10.60;90.61;100587.13;218323;1291;139274;-91
2023/04/29 21:41:21;;;;;;;18.50;9.20;;;;;;;10.56;90.37;100592.82;217675;1288;139858;-91
2023/04/29 21:46:23;;;;;;;17.00;9.40;;;;;;;10.51;90.13;100598.48;218153;1288;139214;-92
2023/04/29 21:51:25;;;;;;;18.30;9.30;;;;;;;10.46;90.06;100601.24;217831;1288;139565;-93
2023/04/29 21:56:25;;;;;;;19.50;10.10;;;;;;;10.43;89.74;100603.17;218523;1289;96419;-91
2023/04/29 22:06:42;;;;;;;16.80;9.90;;;;;;;10.33;90.02;100595.00;218348;1291;138989;-93
2023/04/29 22:11:43;;;;;;;21.30;11.80;;;;;;;10.26;90.09;100598.92;217903;1288;140036;-93
2023/04/29 22:16:43;;;;;;;17.30;10.50;;;;;;;10.21;90.70;100604.02;218361;1288;139182;-94
2023/04/29 22:21:44;;;;;;;17.00;9.40;;;;;;;10.13;91.32;100607.51;217913;1288;139886;-93
2023/04/29 22:26:45;;;;;;;21.10;10.70;;;;;;;10.06;91.45;100613.52;218632;1288;96314;-93
2023/04/29 22:31:45;;;;;;;18.10;10.30;;;;;;;9.99;91.73;100619.27;217992;1291;139245;-94
2023/04/29 22:36:46;;;;;;;14.60;9.40;;;;;;;9.92;91.88;100623.86;218686;1288;138782;-95